Weather at Minneapolis-St Paul International/Wold-Chamberlain Airport

Public forecast

Using degrees Fahrenheit for public forecast. Weather courtesy of forecast.io.

Current aviation weather report (METAR) for Minneapolis-St Paul International/Wold-Chamberlain Airport

Retrieved 2021/01/21 15:53 UTC (12 minutes ago):

KMSP 211553Z 30014G27KT 10SM FEW020 FEW040 00/M06 A2972 RMK AO2 PK WND 28032/1531 SLP071 T00001056

Aviation forecast (TAF) for Minneapolis-St Paul International/Wold-Chamberlain Airport

Retrieved 2021/01/21 12:42 UTC (3 hours ago):

TAF KMSP 211139Z 2112/2218 28017G26KT P6SM SKC FM211500 30020G27KT P6SM SCT020 BKN040 TEMPO 2116/2120 BKN020 FM212000 31017G27KT P6SM SCT030 BKN050 FM220300 33012KT P6SM FEW200